Tallinn/Ulemiste

Airport
ICAO code: 
EETN
Summary
ICAO Region: 
EUR
Territory: 
Location: 
Tallinn,
Coordinates: 
Aerial View: 
59° 24' 59.476" N, 24° 47' 57.492" E
Metar
Observation
EETN 160950Z 22012KT 9999 BKN011 01/M01 Q1002 TEMPO OVC008
Station
Tallinn
Date/Time
2022-01-16 09:50:00
Wind direction
220°
Wind speed
12 kts
Lowest cloud amount
broken clouds
Temperature
1°C
Dew point
-1°C
Humidity
86%
QNH
1002 hPa
Weather condition
n/a

Description

International airport serving capital city of Estonia.

Climatology

Humid Continental climate (Köppen climate classification Dfb) - Variable weather patterns and a large seasonal temperature variance. Summers are often warm and humid with frequent thunderstorms and winters can be very cold with frequent snowfall and persistent snow cover.

Runways

Designator Length Width Surface Rops
8/26 3070 45 ASP Yes/Yes
Airport map: 
Aerial View: 

Accidents and Serious Incidents at or in the vicinity of EETN

SKYbrary Partners:

Safety knowledge contributed by: